Time;durP1;ratioP1;P1;durP2;ratioP2;P2;SDS_P1;SDS_P2;PMS_P1;PMS_P2;Temp;Humidity;BMP_temperature;BMP_pressure;BME280_temperature;BME280_humidity;BME280_pressure;Samples;Min_cycle;Max_cycle;Signal;HPM_P1;HPM_P2
2022/05/28 00:01:55;;;;;;;4.80;1.20;;;13.10;99.90;;;;;;5059413;28;20067;-63
2022/05/28 00:04:21;;;;;;;9.38;1.50;;;13.10;99.90;;;;;;5062074;28;20072;-63
2022/05/28 00:06:46;;;;;;;7.28;1.48;;;13.10;99.90;;;;;;5061777;28;20040;-63
2022/05/28 00:09:12;;;;;;;7.40;1.30;;;13.10;99.90;;;;;;5066656;28;20105;-63
2022/05/28 00:11:41;;;;;;;5.70;1.30;;;13.10;99.90;;;;;;5053687;28;20420;-63
2022/05/28 00:14:07;;;;;;;7.88;1.33;;;13.10;99.90;;;;;;5054906;28;21126;-63
2022/05/28 00:16:33;;;;;;;5.32;1.20;;;13.10;99.90;;;;;;5054043;28;20064;-63
2022/05/28 00:18:59;;;;;;;8.80;1.90;;;13.10;99.90;;;;;;5059116;28;20335;-63
2022/05/28 00:21:25;;;;;;;4.93;1.33;;;13.10;99.90;;;;;;5052512;28;20066;-63
2022/05/28 00:23:51;;;;;;;6.38;1.40;;;13.00;99.90;;;;;;5054442;28;20330;-63
2022/05/28 00:26:16;;;;;;;11.93;1.70;;;13.00;99.90;;;;;;5058356;28;20040;-63
2022/05/28 00:28:43;;;;;;;9.82;1.60;;;13.00;99.90;;;;;;5050968;28;20041;-63
2022/05/28 00:31:09;;;;;;;4.00;0.93;;;13.00;99.90;;;;;;5058038;28;20044;-63
2022/05/28 00:33:35;;;;;;;6.13;1.38;;;13.00;99.90;;;;;;5051415;28;20476;-63
2022/05/28 00:36:03;;;;;;;4.85;1.20;;;13.00;99.90;;;;;;5061307;28;20048;-63
2022/05/28 00:38:28;;;;;;;5.70;1.30;;;13.00;99.90;;;;;;5061057;28;20079;-63
2022/05/28 00:40:57;;;;;;;5.43;1.17;;;13.00;99.90;;;;;;5052658;28;20061;-63
2022/05/28 00:43:24;;;;;;;6.13;0.95;;;13.00;99.90;;;;;;5053392;28;20037;-63
2022/05/28 00:45:55;;;;;;;3.67;0.82;;;13.00;99.90;;;;;;5066348;28;20115;-63
2022/05/28 00:48:26;;;;;;;2.60;0.82;;;12.90;99.90;;;;;;5062542;28;20474;-63
2022/05/28 00:50:51;;;;;;;4.90;1.00;;;12.80;99.90;;;;;;5053530;28;20051;-63
2022/05/28 00:53:17;;;;;;;2.97;0.70;;;12.80;99.90;;;;;;5051202;28;20040;-63
2022/05/28 00:55:43;;;;;;;3.65;0.77;;;12.80;99.90;;;;;;5053663;28;20414;-63
2022/05/28 00:58:10;;;;;;;5.07;0.90;;;12.70;99.90;;;;;;5054544;28;20048;-63
2022/05/28 01:00:37;;;;;;;5.03;1.10;;;12.60;99.90;;;;;;5061586;28;20070;-63
2022/05/28 01:03:16;;;;;;;4.60;0.93;;;12.50;99.90;;;;;;5058453;28;20072;-63
2022/05/28 01:05:52;;;;;;;6.50;1.77;;;12.40;99.90;;;;;;5059623;28;20036;-63
2022/05/28 01:08:32;;;;;;;9.73;1.20;;;12.40;99.90;;;;;;5051838;28;20428;-63
2022/05/28 01:11:05;;;;;;;4.75;0.88;;;12.40;99.90;;;;;;5056525;28;20393;-63
2022/05/28 01:13:36;;;;;;;6.82;1.20;;;12.30;99.90;;;;;;5063121;28;20093;-63
2022/05/28 01:16:09;;;;;;;5.38;1.40;;;12.30;99.90;;;;;;5064686;28;20567;-63
2022/05/28 01:18:59;;;;;;;7.65;1.50;;;12.30;99.90;;;;;;5053357;28;20340;-63
2022/05/28 01:21:42;;;;;;;7.03;1.70;;;12.20;99.90;;;;;;5052552;28;20048;-63
2022/05/28 01:24:27;;;;;;;6.85;1.38;;;12.20;99.90;;;;;;5050130;28;20059;-63
2022/05/28 01:27:01;;;;;;;6.80;1.20;;;12.10;99.90;;;;;;5061671;28;20132;-63
2022/05/28 01:29:31;;;;;;;6.65;1.52;;;12.20;99.90;;;;;;5065613;28;20496;-63
2022/05/28 01:31:58;;;;;;;6.38;1.42;;;12.10;99.90;;;;;;5066678;28;20131;-63
2022/05/28 01:34:26;;;;;;;8.90;1.42;;;12.10;99.90;;;;;;5056288;28;20033;-63
2022/05/28 01:36:53;;;;;;;6.30;1.15;;;12.10;99.90;;;;;;5055331;28;20116;-63
2022/05/28 01:39:19;;;;;;;8.65;1.30;;;12.00;99.90;;;;;;5055142;28;20080;-63
2022/05/28 01:41:47;;;;;;;8.13;1.38;;;11.90;99.90;;;;;;5064683;28;20113;-63
2022/05/28 01:44:15;;;;;;;4.72;1.33;;;11.90;99.90;;;;;;5064635;28;20068;-63
2022/05/28 01:46:44;;;;;;;9.05;1.50;;;11.90;99.90;;;;;;5060988;28;20430;-63
2022/05/28 01:49:12;;;;;;;5.43;1.10;;;11.90;99.90;;;;;;5054903;28;20060;-63
2022/05/28 01:51:43;;;;;;;4.00;1.27;;;11.80;99.90;;;;;;5057904;28;20040;-63
2022/05/28 01:54:13;;;;;;;5.45;1.20;;;11.80;99.90;;;;;;5052513;28;20072;-63
2022/05/28 01:56:45;;;;;;;7.78;1.60;;;11.80;99.90;;;;;;5056962;28;20064;-63
2022/05/28 01:59:13;;;;;;;10.82;1.65;;;11.70;99.90;;;;;;5053726;28;20500;-63
2022/05/28 02:01:39;;;;;;;6.65;1.20;;;11.70;99.90;;;;;;5052997;28;20402;-63
2022/05/28 02:04:06;;;;;;;8.63;1.30;;;11.60;99.90;;;;;;5056815;28;20045;-63
2022/05/28 02:06:34;;;;;;;5.38;1.27;;;11.60;99.90;;;;;;5061364;28;20183;-63
2022/05/28 02:09:00;;;;;;;5.00;1.27;;;11.60;99.90;;;;;;5054682;28;20547;-63
2022/05/28 02:11:47;;;;;;;5.50;1.20;;;11.50;99.90;;;;;;5059743;28;20063;-63
2022/05/28 02:14:36;;;;;;;8.32;1.40;;;11.50;99.90;;;;;;5062579;28;20056;-63
2022/05/28 02:17:17;;;;;;;7.97;1.23;;;11.50;99.90;;;;;;5055828;28;20064;-63
2022/05/28 02:19:45;;;;;;;6.43;1.60;;;11.40;99.90;;;;;;5056134;28;20383;-63
2022/05/28 02:22:26;;;;;;;8.15;1.23;;;11.40;99.90;;;;;;5052133;28;20043;-63
2022/05/28 02:24:56;;;;;;;7.15;1.30;;;11.40;99.90;;;;;;5062795;28;20079;-63
2022/05/28 02:27:24;;;;;;;7.55;1.40;;;11.40;99.90;;;;;;5056119;28;20047;-63
2022/05/28 02:29:50;;;;;;;7.75;1.52;;;11.40;99.90;;;;;;5065284;28;20039;-63
2022/05/28 02:32:22;;;;;;;8.07;1.60;;;11.40;99.90;;;;;;5052699;28;20215;-63
2022/05/28 02:34:50;;;;;;;8.95;1.48;;;11.30;99.90;;;;;;5057890;28;20040;-63
2022/05/28 02:37:22;;;;;;;6.43;1.23;;;11.30;99.90;;;;;;5055780;28;20049;-63
2022/05/28 02:39:48;;;;;;;8.38;1.40;;;11.20;99.90;;;;;;5054088;28;20156;-63
2022/05/28 02:42:14;;;;;;;7.57;1.67;;;11.20;99.90;;;;;;5052776;28;20083;-63
2022/05/28 02:44:39;;;;;;;6.97;1.50;;;11.10;99.90;;;;;;5050471;28;20033;-63
2022/05/28 02:47:05;;;;;;;8.27;1.80;;;11.10;99.90;;;;;;5054512;28;20063;-63
2022/05/28 02:49:31;;;;;;;6.53;1.75;;;11.10;99.90;;;;;;5062580;28;20064;-63
2022/05/28 02:52:01;;;;;;;7.40;1.48;;;11.10;99.90;;;;;;5069960;28;20059;-63
2022/05/28 02:54:27;;;;;;;9.63;1.77;;;11.10;99.90;;;;;;5062688;28;20426;-63
2022/05/28 02:56:54;;;;;;;9.88;1.63;;;11.10;99.90;;;;;;5067521;28;20066;-62
2022/05/28 02:59:19;;;;;;;7.38;1.58;;;11.10;99.90;;;;;;5053200;28;20519;-63
2022/05/28 03:01:45;;;;;;;5.57;1.42;;;11.10;99.90;;;;;;5057139;28;20044;-62
2022/05/28 03:04:10;;;;;;;8.65;1.40;;;11.10;99.90;;;;;;5054614;28;20037;-63
2022/05/28 03:06:37;;;;;;;9.55;1.35;;;11.00;99.90;;;;;;5069469;28;20044;-63
2022/05/28 03:09:05;;;;;;;7.07;1.40;;;11.00;99.90;;;;;;5063501;28;20093;-63
2022/05/28 03:11:31;;;;;;;10.63;1.80;;;11.00;99.90;;;;;;5056664;28;20043;-63
2022/05/28 03:13:57;;;;;;;6.78;1.40;;;11.00;99.90;;;;;;5061428;28;20117;-63
2022/05/28 03:16:23;;;;;;;7.95;1.35;;;11.00;99.90;;;;;;5068613;28;20426;-63
2022/05/28 03:18:48;;;;;;;7.95;1.42;;;11.00;99.90;;;;;;5054861;28;20037;-63
2022/05/28 03:21:14;;;;;;;7.03;1.45;;;11.00;99.90;;;;;;5051397;28;20047;-63
2022/05/28 03:23:39;;;;;;;12.85;2.10;;;10.90;99.90;;;;;;5055491;28;20039;-63
2022/05/28 03:26:16;;;;;;;8.95;1.40;;;10.90;99.90;;;;;;5064289;28;20119;-63
2022/05/28 03:28:41;;;;;;;6.10;1.45;;;10.90;99.90;;;;;;5054244;28;20068;-63
2022/05/28 03:31:07;;;;;;;8.18;1.67;;;10.90;99.90;;;;;;5052831;28;20080;-63
2022/05/28 03:33:33;;;;;;;7.38;1.40;;;10.80;99.90;;;;;;5054531;28;20069;-63
2022/05/28 03:35:58;;;;;;;5.97;1.38;;;10.80;99.90;;;;;;5064123;28;20109;-63
2022/05/28 03:38:24;;;;;;;7.82;1.35;;;10.80;99.90;;;;;;5052437;28;20041;-63
2022/05/28 03:40:50;;;;;;;7.32;1.50;;;10.80;99.90;;;;;;5061880;28;20043;-63
2022/05/28 03:43:15;;;;;;;10.52;1.65;;;10.80;99.90;;;;;;5054733;28;20443;-63
2022/05/28 03:45:41;;;;;;;6.82;1.30;;;10.80;99.90;;;;;;5057704;28;21472;-63
2022/05/28 03:48:10;;;;;;;8.65;1.65;;;10.80;99.90;;;;;;5055742;28;20079;-62
2022/05/28 03:50:35;;;;;;;9.30;1.38;;;10.80;99.90;;;;;;5053756;28;20065;-63
2022/05/28 03:53:01;;;;;;;10.32;1.45;;;10.80;99.90;;;;;;5052430;28;20056;-64
2022/05/28 03:55:26;;;;;;;7.90;1.58;;;10.90;99.90;;;;;;5060471;28;20071;-63
2022/05/28 03:57:52;;;;;;;7.20;1.38;;;10.90;99.90;;;;;;5059059;28;20059;-64
2022/05/28 04:00:18;;;;;;;10.27;1.60;;;10.90;99.90;;;;;;5054877;28;20126;-64
2022/05/28 04:02:44;;;;;;;8.65;1.73;;;11.00;99.90;;;;;;5058617;28;20051;-62
2022/05/28 04:05:10;;;;;;;8.82;1.80;;;11.00;99.90;;;;;;5051345;28;20360;-64
2022/05/28 04:07:36;;;;;;;7.82;1.42;;;11.00;99.90;;;;;;5064574;28;20032;-64
2022/05/28 04:10:02;;;;;;;9.05;1.48;;;11.00;99.90;;;;;;5055139;28;20502;-64
2022/05/28 04:12:27;;;;;;;9.02;1.40;;;11.00;99.90;;;;;;5053817;28;20037;-64
2022/05/28 04:14:53;;;;;;;8.52;1.50;;;11.00;99.90;;;;;;5050226;28;20060;-64
2022/05/28 04:17:18;;;;;;;8.63;1.27;;;11.00;99.90;;;;;;5051175;28;20336;-64
2022/05/28 04:19:44;;;;;;;12.00;1.98;;;11.00;99.90;;;;;;5050053;28;20128;-64
2022/05/28 04:22:10;;;;;;;10.13;1.67;;;11.10;99.90;;;;;;5056876;28;20459;-64
2022/05/28 04:24:35;;;;;;;11.55;1.70;;;11.10;99.90;;;;;;5050687;28;20049;-64
2022/05/28 04:27:01;;;;;;;7.00;1.50;;;11.00;99.90;;;;;;5045975;28;20052;-64
2022/05/28 04:29:26;;;;;;;9.52;1.77;;;11.00;99.90;;;;;;5044429;28;20107;-63
2022/05/28 04:31:52;;;;;;;7.15;1.60;;;11.10;99.90;;;;;;5044785;28;20371;-64
2022/05/28 04:34:17;;;;;;;8.40;1.73;;;11.10;99.90;;;;;;5051775;28;20339;-64
2022/05/28 04:36:43;;;;;;;8.55;1.65;;;11.20;99.90;;;;;;5045893;28;20123;-63
2022/05/28 04:39:08;;;;;;;8.35;1.65;;;11.30;99.90;;;;;;5048056;28;20113;-64
2022/05/28 04:41:34;;;;;;;9.00;1.73;;;11.40;99.90;;;;;;5060744;28;20045;-64
2022/05/28 04:44:00;;;;;;;10.05;1.45;;;11.40;99.90;;;;;;5044385;28;20117;-64
2022/05/28 04:46:25;;;;;;;8.10;1.50;;;11.60;99.90;;;;;;5048620;28;20049;-63
2022/05/28 04:48:51;;;;;;;6.78;1.80;;;11.70;99.90;;;;;;5039361;28;20048;-64
2022/05/28 04:51:16;;;;;;;8.35;1.50;;;11.80;99.90;;;;;;5049910;28;20044;-64
2022/05/28 04:53:42;;;;;;;9.55;1.75;;;12.00;99.90;;;;;;5049217;28;20044;-64
2022/05/28 04:56:08;;;;;;;9.65;1.75;;;11.90;99.90;;;;;;5052142;28;20090;-64
2022/05/28 04:58:34;;;;;;;7.97;1.63;;;11.90;99.90;;;;;;5050825;28;20123;-63
2022/05/28 05:00:59;;;;;;;9.75;1.77;;;11.90;99.90;;;;;;5046579;28;20068;-63
2022/05/28 05:03:25;;;;;;;9.27;1.95;;;11.90;99.90;;;;;;5050352;28;20114;-64
2022/05/28 05:05:50;;;;;;;12.68;1.80;;;12.00;99.90;;;;;;5050117;28;20051;-63
2022/05/28 05:08:16;;;;;;;10.60;1.80;;;12.10;99.90;;;;;;5048331;28;20415;-64
2022/05/28 05:10:44;;;;;;;8.18;1.90;;;12.20;99.90;;;;;;5052616;28;20183;-64
2022/05/28 05:13:09;;;;;;;10.52;1.92;;;12.30;99.90;;;;;;5052219;28;20063;-64
2022/05/28 05:15:35;;;;;;;9.52;2.00;;;12.30;99.90;;;;;;5046842;28;20475;-64
2022/05/28 05:18:00;;;;;;;10.98;1.88;;;12.40;99.90;;;;;;5051643;28;20033;-63
2022/05/28 05:20:26;;;;;;;12.35;2.13;;;12.50;99.90;;;;;;5047933;28;20102;-64
2022/05/28 05:22:53;;;;;;;9.73;1.90;;;12.50;99.90;;;;;;5051215;28;20045;-64
2022/05/28 05:25:19;;;;;;;16.08;2.05;;;12.60;99.90;;;;;;5048906;28;20040;-64
2022/05/28 05:27:44;;;;;;;7.57;1.75;;;12.70;99.90;;;;;;5047945;28;20051;-64
2022/05/28 05:30:10;;;;;;;11.77;1.90;;;12.80;99.90;;;;;;5046596;28;20087;-63
2022/05/28 05:32:36;;;;;;;10.93;1.73;;;13.00;99.90;;;;;;5030885;28;20431;-63
2022/05/28 05:35:02;;;;;;;8.15;1.75;;;13.10;99.90;;;;;;5050139;28;20072;-63
2022/05/28 05:37:27;;;;;;;8.32;1.92;;;13.10;99.90;;;;;;5051551;28;20069;-63
2022/05/28 05:39:53;;;;;;;9.05;1.73;;;13.30;99.90;;;;;;5051455;28;20099;-63
2022/05/28 05:42:19;;;;;;;7.47;1.95;;;13.30;99.90;;;;;;5049514;28;20154;-63
2022/05/28 05:44:44;;;;;;;8.27;1.73;;;13.50;99.90;;;;;;5051515;28;20052;-64
2022/05/28 05:47:10;;;;;;;11.30;2.10;;;13.60;99.90;;;;;;5050164;28;20123;-63
2022/05/28 05:49:36;;;;;;;12.85;2.00;;;13.80;99.90;;;;;;5046128;28;20049;-63
2022/05/28 05:52:02;;;;;;;8.80;1.45;;;13.70;99.90;;;;;;5052681;28;20040;-64
2022/05/28 05:54:28;;;;;;;9.18;1.70;;;13.80;99.90;;;;;;5049410;28;20040;-64
2022/05/28 05:56:54;;;;;;;12.13;1.92;;;13.80;99.90;;;;;;5044341;28;20044;-63
2022/05/28 05:59:20;;;;;;;13.43;1.85;;;13.80;99.90;;;;;;5051887;28;20163;-63
2022/05/28 06:01:46;;;;;;;10.85;2.20;;;13.80;99.90;;;;;;5059991;28;20487;-63
2022/05/28 06:04:11;;;;;;;8.52;1.98;;;13.90;99.90;;;;;;5065452;28;20045;-63
2022/05/28 06:06:37;;;;;;;8.70;1.60;;;13.90;99.90;;;;;;5057525;28;20045;-63
2022/05/28 06:09:03;;;;;;;9.20;1.80;;;13.70;99.90;;;;;;5058126;28;20179;-63
2022/05/28 06:11:28;;;;;;;8.32;2.15;;;13.70;99.90;;;;;;5055510;28;20390;-63
2022/05/28 06:13:54;;;;;;;11.60;2.05;;;13.70;99.90;;;;;;5065457;28;20037;-63
2022/05/28 06:16:20;;;;;;;10.70;1.90;;;13.80;99.90;;;;;;5060744;28;20049;-66
2022/05/28 06:18:45;;;;;;;9.95;1.83;;;13.80;99.90;;;;;;5053403;28;20044;-62
2022/05/28 06:21:11;;;;;;;11.77;2.00;;;13.70;99.90;;;;;;5056180;28;20044;-62
2022/05/28 06:23:38;;;;;;;15.43;2.78;;;13.70;99.90;;;;;;5057974;28;20061;-63
2022/05/28 06:26:04;;;;;;;11.80;2.28;;;13.70;99.90;;;;;;5056108;28;20372;-63
2022/05/28 06:28:30;;;;;;;11.85;2.50;;;13.80;99.90;;;;;;5061035;28;20032;-63
2022/05/28 06:31:05;;;;;;;13.18;1.92;;;13.80;99.90;;;;;;5055959;28;20496;-63
2022/05/28 06:33:30;;;;;;;;;;;13.80;99.90;;;;;;5057251;28;20383;-63
2022/05/28 06:36:01;;;;;;;11.68;2.08;;;13.80;99.90;;;;;;5052125;28;19925;-63
2022/05/28 06:38:26;;;;;;;8.98;1.92;;;13.80;99.90;;;;;;5055095;28;20060;-62
2022/05/28 06:40:52;;;;;;;9.82;2.10;;;13.80;99.90;;;;;;5057159;28;20044;-62
2022/05/28 06:43:18;;;;;;;8.65;2.10;;;14.10;99.90;;;;;;5064330;28;20445;-63
2022/05/28 06:45:44;;;;;;;8.98;1.98;;;14.30;99.90;;;;;;5056702;28;20029;-62
2022/05/28 06:48:10;;;;;;;11.30;2.15;;;14.20;99.90;;;;;;5057408;28;20119;-62
2022/05/28 06:53:20;;;;;;;10.27;2.00;;;14.20;99.90;;;;;;5050461;28;20051;-62
2022/05/28 06:55:46;;;;;;;8.82;2.00;;;14.50;99.90;;;;;;5053369;28;20058;-62
2022/05/28 06:58:12;;;;;;;10.25;1.98;;;14.50;99.90;;;;;;5052556;28;20056;-62
2022/05/28 07:00:38;;;;;;;9.38;1.95;;;14.40;99.90;;;;;;5052582;28;20049;-62
2022/05/28 07:03:04;;;;;;;12.10;2.40;;;14.30;99.90;;;;;;5051030;28;20408;-62
2022/05/28 07:05:30;;;;;;;8.93;2.10;;;14.30;99.90;;;;;;5048395;28;20033;-62
2022/05/28 07:07:56;;;;;;;10.80;2.03;;;14.30;99.90;;;;;;5049435;28;20041;-62
2022/05/28 07:10:22;;;;;;;10.38;2.03;;;14.20;99.90;;;;;;5046923;28;20049;-62
2022/05/28 07:12:48;;;;;;;10.85;2.35;;;14.20;99.90;;;;;;5052367;28;20064;-62
2022/05/28 07:15:13;;;;;;;10.73;1.92;;;14.20;99.90;;;;;;5042906;28;20041;-62
2022/05/28 07:17:42;;;;;;;13.48;2.72;;;14.30;99.90;;;;;;5041971;28;20074;-62
2022/05/28 07:20:09;;;;;;;10.15;2.13;;;14.10;99.90;;;;;;5041561;28;20144;-63
2022/05/28 07:22:35;;;;;;;9.52;2.30;;;14.30;99.90;;;;;;5044108;28;20048;-62
2022/05/28 07:25:01;;;;;;;9.15;2.13;;;14.40;99.90;;;;;;5049061;28;20083;-62
2022/05/28 07:27:26;;;;;;;11.35;2.25;;;14.80;99.90;;;;;;5051445;28;20037;-62
2022/05/28 07:29:55;;;;;;;9.95;2.30;;;15.20;99.90;;;;;;5048360;28;20148;-62
2022/05/28 07:32:29;;;;;;;8.85;2.20;;;15.50;99.90;;;;;;5049137;28;20048;-62
2022/05/28 07:34:58;;;;;;;11.30;2.30;;;15.50;99.90;;;;;;5048594;28;20045;-62
2022/05/28 07:37:29;;;;;;;9.48;2.00;;;15.40;99.40;;;;;;5050233;28;20037;-63
2022/05/28 07:39:54;;;;;;;7.40;2.08;;;15.30;99.00;;;;;;5051403;28;20071;-62
2022/05/28 07:42:20;;;;;;;9.65;1.98;;;15.20;99.30;;;;;;5051044;28;20448;-62
2022/05/28 07:45:12;;;;;;;9.35;1.95;;;15.00;98.80;;;;;;5107857;27;20404;-63
2022/05/28 07:47:38;;;;;;;9.55;1.95;;;14.90;99.50;;;;;;5107921;28;20055;-62
2022/05/28 07:50:03;;;;;;;10.43;2.33;;;15.10;99.90;;;;;;5103221;28;20122;-63
2022/05/28 07:52:29;;;;;;;7.28;2.10;;;15.10;99.90;;;;;;5104740;28;20054;-63
2022/05/28 07:54:54;;;;;;;12.02;2.05;;;15.20;99.90;;;;;;5110145;28;20036;-63
2022/05/28 07:57:20;;;;;;;8.25;2.00;;;15.50;99.60;;;;;;5104223;28;20134;-62
2022/05/28 07:59:45;;;;;;;11.18;2.03;;;15.60;98.80;;;;;;5110265;28;20070;-63
2022/05/28 08:02:11;;;;;;;10.10;1.90;;;15.50;99.00;;;;;;5105537;28;20044;-62
2022/05/28 08:04:36;;;;;;;13.88;2.45;;;15.20;98.80;;;;;;5088104;28;20052;-62
2022/05/28 08:07:02;;;;;;;9.43;2.10;;;15.00;98.90;;;;;;5102026;28;20072;-62
2022/05/28 08:09:28;;;;;;;11.55;2.53;;;14.90;99.30;;;;;;5105493;28;20148;-62
2022/05/28 08:11:53;;;;;;;10.43;2.47;;;15.00;99.90;;;;;;5106094;28;20036;-62
2022/05/28 08:14:19;;;;;;;11.60;2.15;;;15.10;99.10;;;;;;5100491;28;20059;-62
2022/05/28 08:16:44;;;;;;;12.25;1.98;;;14.90;98.30;;;;;;5095208;28;20051;-63
2022/05/28 08:19:10;;;;;;;10.70;2.20;;;15.00;98.60;;;;;;5106866;28;20044;-62
2022/05/28 08:24:20;;;;;;;10.23;2.03;;;15.20;98.30;;;;;;5082831;28;20048;-63
2022/05/28 08:26:45;;;;;;;10.45;2.20;;;15.20;97.90;;;;;;5084035;28;20309;-63
2022/05/28 08:29:11;;;;;;;9.40;2.15;;;15.20;97.70;;;;;;5081424;28;20504;-63
2022/05/28 08:31:36;;;;;;;10.23;1.90;;;15.20;98.30;;;;;;5084169;28;20494;-63
2022/05/28 08:34:02;;;;;;;11.43;1.90;;;15.40;97.90;;;;;;5074364;28;20045;-63
2022/05/28 08:36:27;;;;;;;8.52;1.92;;;15.50;96.40;;;;;;5087633;28;20355;-63
2022/05/28 08:38:53;;;;;;;10.27;1.95;;;15.80;96.30;;;;;;5081484;28;20044;-63
2022/05/28 08:41:33;;;;;;;9.35;2.00;;;16.20;96.00;;;;;;5079326;28;20041;-63
2022/05/28 08:44:17;;;;;;;9.73;1.90;;;16.10;92.80;;;;;;5072129;28;20556;-64
2022/05/28 08:46:47;;;;;;;8.95;2.22;;;16.20;94.70;;;;;;5073152;28;20032;-63
2022/05/28 08:49:14;;;;;;;11.23;2.05;;;16.30;94.90;;;;;;5073894;28;20132;-63
2022/05/28 08:51:54;;;;;;;10.15;2.30;;;16.40;94.10;;;;;;5082133;28;20041;-63
2022/05/28 08:54:26;;;;;;;13.18;1.83;;;16.20;92.80;;;;;;5085098;28;20039;-63
2022/05/28 08:56:55;;;;;;;10.63;2.25;;;16.10;94.00;;;;;;5061972;28;20101;-63
2022/05/28 08:59:31;;;;;;;9.55;2.13;;;16.00;93.70;;;;;;5053748;28;20045;-63
2022/05/28 09:01:58;;;;;;;7.63;1.70;;;16.00;93.70;;;;;;5073944;28;20526;-63
2022/05/28 09:04:36;;;;;;;8.05;1.90;;;16.00;94.20;;;;;;5069657;28;20483;-63
2022/05/28 09:07:05;;;;;;;8.90;1.95;;;16.00;94.30;;;;;;5065850;28;20049;-63
2022/05/28 09:09:42;;;;;;;8.02;1.55;;;15.90;93.60;;;;;;5073196;28;20140;-63
2022/05/28 09:12:15;;;;;;;9.10;1.92;;;15.70;90.90;;;;;;5074490;28;20048;-63
2022/05/28 09:14:40;;;;;;;9.63;2.08;;;15.80;90.60;;;;;;5059535;28;20112;-63
2022/05/28 09:17:31;;;;;;;11.48;2.35;;;16.20;91.40;;;;;;5071318;28;20123;-63
2022/05/28 09:20:02;;;;;;;10.20;1.90;;;16.60;90.50;;;;;;5072543;28;20494;-63
2022/05/28 09:22:28;;;;;;;14.18;2.75;;;17.10;90.10;;;;;;5062892;28;20041;-63
2022/05/28 09:24:53;;;;;;;7.95;1.88;;;17.10;89.10;;;;;;5065165;28;20379;-63
2022/05/28 09:28:00;;;;;;;7.38;1.92;;;17.10;90.10;;;;;;5072599;28;20049;-63
2022/05/28 09:30:55;;;;;;;8.48;2.00;;;17.00;90.20;;;;;;5071697;28;20037;-63
2022/05/28 09:33:32;;;;;;;9.45;1.80;;;16.70;86.90;;;;;;5067505;28;20041;-63
2022/05/28 09:36:02;;;;;;;9.48;1.77;;;16.80;87.10;;;;;;5065985;28;20135;-63
2022/05/28 09:38:52;;;;;;;8.80;2.10;;;17.00;86.60;;;;;;5063764;28;20056;-64
2022/05/28 09:41:42;;;;;;;8.48;1.58;;;17.00;83.90;;;;;;5074178;28;20517;-63
2022/05/28 09:44:33;;;;;;;8.23;1.88;;;17.30;85.40;;;;;;5056635;28;20083;-63
2022/05/28 09:47:10;;;;;;;7.97;1.83;;;17.30;81.90;;;;;;5063442;28;20094;-62
2022/05/28 09:49:52;;;;;;;9.48;2.03;;;17.20;81.40;;;;;;5070333;28;20060;-62
2022/05/28 09:52:27;;;;;;;12.45;2.33;;;17.00;84.00;;;;;;5062236;28;20422;-63
2022/05/28 09:55:11;;;;;;;9.98;1.98;;;16.70;87.90;;;;;;5068690;28;20047;-63
2022/05/28 09:58:00;;;;;;;8.68;1.83;;;16.60;89.60;;;;;;5065843;28;20068;-63
2022/05/28 10:00:26;;;;;;;8.50;1.90;;;16.40;86.80;;;;;;5065263;28;20051;-63
2022/05/28 10:05:54;;;;;;;9.73;2.00;;;16.50;84.10;;;;;;5066463;28;20110;-61
2022/05/28 10:08:19;;;;;;;7.97;1.70;;;16.70;77.90;;;;;;5071640;28;20404;-63
2022/05/28 10:10:56;;;;;;;8.25;1.90;;;16.60;80.60;;;;;;5053732;28;20041;-62
2022/05/28 10:13:25;;;;;;;9.57;2.00;;;16.60;81.50;;;;;;5063696;28;20045;-62
2022/05/28 10:15:54;;;;;;;8.27;1.85;;;16.50;82.20;;;;;;5059987;28;20037;-63
2022/05/28 10:18:25;;;;;;;9.45;1.98;;;16.90;82.90;;;;;;5052020;28;20051;-63
2022/05/28 10:21:02;;;;;;;11.05;2.20;;;17.30;83.10;;;;;;5067426;28;20048;-62
2022/05/28 10:23:28;;;;;;;7.40;1.73;;;17.50;84.10;;;;;;5051840;28;20498;-63
2022/05/28 10:25:53;;;;;;;7.78;2.08;;;17.40;84.50;;;;;;5071958;28;20052;-62
2022/05/28 10:28:40;;;;;;;9.07;1.63;;;17.40;84.10;;;;;;5066233;28;20037;-62
2022/05/28 10:31:21;;;;;;;8.13;2.00;;;17.30;84.70;;;;;;5063051;28;20048;-62
2022/05/28 10:33:46;;;;;;;8.80;2.22;;;17.30;84.80;;;;;;5069450;28;20079;-62
2022/05/28 10:36:17;;;;;;;8.75;1.70;;;17.10;84.00;;;;;;5071666;28;20077;-62
2022/05/28 10:38:44;;;;;;;9.80;2.17;;;17.20;82.80;;;;;;5063125;28;20115;-62
2022/05/28 10:41:20;;;;;;;8.43;1.85;;;17.30;82.90;;;;;;5063096;28;20076;-62
2022/05/28 10:43:46;;;;;;;10.90;1.75;;;17.20;83.20;;;;;;5071108;28;20061;-62
2022/05/28 10:46:12;;;;;;;9.38;2.05;;;17.30;82.40;;;;;;5069710;28;20040;-62
2022/05/28 10:49:19;;;;;;;7.68;1.90;;;16.80;85.30;;;;;;5070105;28;20120;-62
2022/05/28 10:51:58;;;;;;;12.48;2.45;;;17.20;87.40;;;;;;5071479;28;20084;-62
2022/05/28 10:54:56;;;;;;;10.18;2.20;;;17.10;86.00;;;;;;5067119;28;20059;-62
2022/05/28 10:57:55;;;;;;;8.40;1.60;;;17.10;83.30;;;;;;5066730;28;20072;-62
2022/05/28 11:00:47;;;;;;;9.25;2.33;;;17.10;85.90;;;;;;5069297;28;20071;-62
2022/05/28 11:03:33;;;;;;;9.77;2.17;;;17.00;87.30;;;;;;5071348;28;20072;-62
2022/05/28 11:06:44;;;;;;;12.25;2.08;;;17.00;86.70;;;;;;5069615;28;20363;-62
2022/05/28 11:09:18;;;;;;;10.25;2.28;;;17.00;84.90;;;;;;5070453;28;20055;-62
2022/05/28 11:11:53;;;;;;;10.05;2.45;;;17.10;87.00;;;;;;5070524;28;20394;-62
2022/05/28 11:14:46;;;;;;;10.98;2.30;;;17.10;85.40;;;;;;5051528;28;20037;-62
2022/05/28 11:17:40;;;;;;;11.13;2.10;;;17.00;87.20;;;;;;5063562;28;20089;-62
2022/05/28 11:20:20;;;;;;;11.43;2.22;;;17.20;85.20;;;;;;5066885;28;20046;-62
2022/05/28 11:22:48;;;;;;;11.35;2.00;;;17.50;84.50;;;;;;5071169;28;20053;-62
2022/05/28 11:25:26;;;;;;;9.45;2.20;;;17.40;85.60;;;;;;5067587;28;20067;-62
2022/05/28 11:27:51;;;;;;;9.23;1.90;;;17.20;86.70;;;;;;5069685;28;20051;-64
2022/05/28 11:30:41;;;;;;;11.45;1.98;;;17.00;87.00;;;;;;5064849;28;20048;-64
2022/05/28 11:33:19;;;;;;;11.88;2.03;;;16.80;87.80;;;;;;5064020;28;20036;-62
2022/05/28 11:35:54;;;;;;;7.70;2.10;;;16.90;86.80;;;;;;5050972;28;20059;-63
2022/05/28 11:38:30;;;;;;;12.13;2.20;;;16.80;87.00;;;;;;5069485;28;21619;-63
2022/05/28 11:41:17;;;;;;;12.73;2.13;;;16.70;87.40;;;;;;5055455;28;20129;-65
2022/05/28 11:44:07;;;;;;;9.05;2.30;;;16.60;88.20;;;;;;5057424;28;20513;-66
2022/05/28 11:46:56;;;;;;;12.52;2.53;;;16.70;87.80;;;;;;5054322;28;20049;-62
2022/05/28 11:53:11;;;;;;;10.38;2.38;;;17.00;87.60;;;;;;5006782;28;20141;-62
2022/05/28 11:55:41;;;;;;;9.88;2.30;;;17.60;86.10;;;;;;5061175;28;20113;-62
2022/05/28 11:58:13;;;;;;;9.20;2.00;;;17.70;80.40;;;;;;5051422;28;20422;-62
2022/05/28 12:00:41;;;;;;;10.43;2.28;;;17.90;79.20;;;;;;5055647;28;20052;-62
2022/05/28 12:03:23;;;;;;;10.45;2.65;;;17.80;78.60;;;;;;5068557;28;20041;-62
2022/05/28 12:06:08;;;;;;;8.65;2.40;;;17.80;77.90;;;;;;5069041;28;20258;-62
2022/05/28 12:08:44;;;;;;;8.27;1.75;;;17.90;80.50;;;;;;5067076;28;20044;-61
2022/05/28 12:11:30;;;;;;;10.20;1.90;;;17.70;75.20;;;;;;5070387;28;20194;-61
2022/05/28 12:13:59;;;;;;;10.10;2.15;;;17.30;72.10;;;;;;5062472;28;20084;-61
2022/05/28 12:16:31;;;;;;;7.43;1.80;;;17.10;74.50;;;;;;5075563;28;20063;-62
2022/05/28 12:19:07;;;;;;;9.93;2.00;;;16.90;76.00;;;;;;5062886;28;20037;-62
2022/05/28 12:21:36;;;;;;;7.82;1.58;;;16.80;79.00;;;;;;5065155;28;20048;-62
2022/05/28 12:24:07;;;;;;;8.70;1.90;;;17.00;81.00;;;;;;5068699;28;20059;-62
2022/05/28 12:26:50;;;;;;;10.57;1.88;;;17.30;79.20;;;;;;5065275;28;20048;-62
2022/05/28 12:29:34;;;;;;;9.65;1.85;;;17.50;79.10;;;;;;5068953;28;20142;-63
2022/05/28 12:32:40;;;;;;;6.72;1.83;;;17.90;75.30;;;;;;5070507;28;20538;-62
2022/05/28 12:35:24;;;;;;;8.32;1.52;;;17.80;74.80;;;;;;5061261;28;20667;-62
2022/05/28 12:38:01;;;;;;;6.63;1.60;;;18.30;75.20;;;;;;5072193;28;20044;-62
2022/05/28 12:40:56;;;;;;;5.47;1.52;;;18.30;70.00;;;;;;5073070;28;20045;-62
2022/05/28 12:43:33;;;;;;;6.90;1.60;;;17.90;71.70;;;;;;5070855;28;20064;-62
2022/05/28 12:46:16;;;;;;;6.35;1.80;;;17.50;71.50;;;;;;5071078;28;20051;-62
2022/05/28 12:48:43;;;;;;;9.30;1.63;;;17.40;72.20;;;;;;5071958;28;20111;-62
2022/05/28 12:51:32;;;;;;;10.35;1.60;;;17.60;73.00;;;;;;5064990;28;20097;-62
2022/05/28 12:54:01;;;;;;;10.13;1.77;;;17.60;70.80;;;;;;5066553;28;20041;-61
2022/05/28 12:56:44;;;;;;;7.30;1.90;;;17.40;72.50;;;;;;5068923;28;20044;-62
2022/05/28 12:59:28;;;;;;;14.60;2.33;;;16.70;81.40;;;;;;5064313;28;20043;-61
2022/05/28 13:02:22;;;;;;;5.75;1.80;;;16.40;86.90;;;;;;5069869;28;20483;-61
2022/05/28 13:05:08;;;;;;;8.05;1.90;;;16.30;90.50;;;;;;5062031;28;20048;-60
2022/05/28 13:07:41;;;;;;;8.75;1.80;;;16.00;91.90;;;;;;5066038;28;20036;-62
2022/05/28 13:10:26;;;;;;;7.72;1.55;;;15.70;92.60;;;;;;5062474;28;20363;-63
2022/05/28 13:13:29;;;;;;;9.73;2.03;;;15.80;93.50;;;;;;5076149;28;20083;-61
2022/05/28 13:16:33;;;;;;;9.13;2.10;;;15.90;93.20;;;;;;5068977;28;20048;-61